sensor_id;sensor_type;location;lat;lon;timestamp;temperature;humidity
13856;DHT22;6998;53.608;9.958;2022-10-16T00:01:35;14.00;99.90
13856;DHT22;6998;53.608;9.958;2022-10-16T00:04:02;14.10;99.90
13856;DHT22;6998;53.608;9.958;2022-10-16T00:06:30;14.10;99.90
13856;DHT22;6998;53.608;9.958;2022-10-16T00:08:57;14.10;99.90
13856;DHT22;6998;53.608;9.958;2022-10-16T00:11:25;14.00;99.90
13856;DHT22;6998;53.608;9.958;2022-10-16T00:13:56;13.90;99.90
13856;DHT22;6998;53.608;9.958;2022-10-16T00:16:23;13.90;99.90
13856;DHT22;6998;53.608;9.958;2022-10-16T00:18:52;13.90;99.90
13856;DHT22;6998;53.608;9.958;2022-10-16T00:21:22;13.90;99.90
13856;DHT22;6998;53.608;9.958;2022-10-16T00:23:50;13.90;99.90
13856;DHT22;6998;53.608;9.958;2022-10-16T00:26:18;14.00;99.90
13856;DHT22;6998;53.608;9.958;2022-10-16T00:28:45;14.00;99.90
13856;DHT22;6998;53.608;9.958;2022-10-16T00:31:12;13.90;99.90
13856;DHT22;6998;53.608;9.958;2022-10-16T00:33:40;13.90;99.90
13856;DHT22;6998;53.608;9.958;2022-10-16T00:36:11;13.90;99.90
13856;DHT22;6998;53.608;9.958;2022-10-16T00:38:39;13.90;99.90
13856;DHT22;6998;53.608;9.958;2022-10-16T00:41:07;13.90;99.90
13856;DHT22;6998;53.608;9.958;2022-10-16T00:43:38;13.90;99.90
13856;DHT22;6998;53.608;9.958;2022-10-16T00:46:10;13.90;99.90
13856;DHT22;6998;53.608;9.958;2022-10-16T00:48:39;13.90;99.90
13856;DHT22;6998;53.608;9.958;2022-10-16T00:51:07;13.90;99.90
13856;DHT22;6998;53.608;9.958;2022-10-16T00:53:35;14.00;99.90
13856;DHT22;6998;53.608;9.958;2022-10-16T00:56:03;14.00;99.90
13856;DHT22;6998;53.608;9.958;2022-10-16T00:58:30;14.10;99.90
13856;DHT22;6998;53.608;9.958;2022-10-16T01:00:57;14.00;99.90
13856;DHT22;6998;53.608;9.958;2022-10-16T01:03:27;14.00;99.90
13856;DHT22;6998;53.608;9.958;2022-10-16T01:06:03;14.00;99.90
13856;DHT22;6998;53.608;9.958;2022-10-16T01:08:42;14.00;99.90
13856;DHT22;6998;53.608;9.958;2022-10-16T01:11:17;13.90;99.90
13856;DHT22;6998;53.608;9.958;2022-10-16T01:13:48;13.90;99.90
13856;DHT22;6998;53.608;9.958;2022-10-16T01:16:25;13.90;99.90
13856;DHT22;6998;53.608;9.958;2022-10-16T01:18:59;13.80;99.90
13856;DHT22;6998;53.608;9.958;2022-10-16T01:21:31;13.80;99.90
13856;DHT22;6998;53.608;9.958;2022-10-16T01:24:06;13.80;99.90
13856;DHT22;6998;53.608;9.958;2022-10-16T01:26:47;13.80;99.90
13856;DHT22;6998;53.608;9.958;2022-10-16T01:29:21;13.70;99.90
13856;DHT22;6998;53.608;9.958;2022-10-16T01:31:54;13.70;99.90
13856;DHT22;6998;53.608;9.958;2022-10-16T01:34:28;13.60;99.90
13856;DHT22;6998;53.608;9.958;2022-10-16T01:37:03;13.60;99.90
13856;DHT22;6998;53.608;9.958;2022-10-16T01:39:34;13.60;99.90
13856;DHT22;6998;53.608;9.958;2022-10-16T01:42:18;13.60;99.90
13856;DHT22;6998;53.608;9.958;2022-10-16T01:44:48;13.60;99.90
13856;DHT22;6998;53.608;9.958;2022-10-16T01:47:15;13.50;99.90
13856;DHT22;6998;53.608;9.958;2022-10-16T01:49:45;13.50;99.90
13856;DHT22;6998;53.608;9.958;2022-10-16T01:52:15;13.40;99.90
13856;DHT22;6998;53.608;9.958;2022-10-16T01:54:46;13.30;99.90
13856;DHT22;6998;53.608;9.958;2022-10-16T01:57:14;13.30;99.90
13856;DHT22;6998;53.608;9.958;2022-10-16T01:59:44;13.30;99.90
13856;DHT22;6998;53.608;9.958;2022-10-16T02:02:15;13.20;99.90
13856;DHT22;6998;53.608;9.958;2022-10-16T02:04:45;13.20;99.90
13856;DHT22;6998;53.608;9.958;2022-10-16T02:07:13;13.20;99.90
13856;DHT22;6998;53.608;9.958;2022-10-16T02:09:40;13.20;99.90
13856;DHT22;6998;53.608;9.958;2022-10-16T02:12:11;13.20;99.90
13856;DHT22;6998;53.608;9.958;2022-10-16T02:14:40;13.20;99.90
13856;DHT22;6998;53.608;9.958;2022-10-16T02:17:12;13.20;99.90
13856;DHT22;6998;53.608;9.958;2022-10-16T02:19:41;13.20;99.90
13856;DHT22;6998;53.608;9.958;2022-10-16T02:22:11;13.20;99.90
13856;DHT22;6998;53.608;9.958;2022-10-16T02:24:47;13.10;99.90
13856;DHT22;6998;53.608;9.958;2022-10-16T02:27:21;13.10;99.90
13856;DHT22;6998;53.608;9.958;2022-10-16T02:29:55;13.00;99.90
13856;DHT22;6998;53.608;9.958;2022-10-16T02:32:28;13.00;99.90
13856;DHT22;6998;53.608;9.958;2022-10-16T02:34:58;13.00;99.90
13856;DHT22;6998;53.608;9.958;2022-10-16T02:37:27;13.00;99.90
13856;DHT22;6998;53.608;9.958;2022-10-16T02:39:55;12.90;99.90
13856;DHT22;6998;53.608;9.958;2022-10-16T02:42:28;13.00;99.90
13856;DHT22;6998;53.608;9.958;2022-10-16T02:44:54;13.10;99.90
13856;DHT22;6998;53.608;9.958;2022-10-16T02:47:21;13.00;99.90
13856;DHT22;6998;53.608;9.958;2022-10-16T02:49:48;13.00;99.90
13856;DHT22;6998;53.608;9.958;2022-10-16T02:52:16;13.00;99.90
13856;DHT22;6998;53.608;9.958;2022-10-16T02:54:42;13.00;99.90
13856;DHT22;6998;53.608;9.958;2022-10-16T02:57:09;12.90;99.90
13856;DHT22;6998;53.608;9.958;2022-10-16T02:59:37;12.90;99.90
13856;DHT22;6998;53.608;9.958;2022-10-16T03:02:03;12.80;99.90
13856;DHT22;6998;53.608;9.958;2022-10-16T03:04:30;12.70;99.90
13856;DHT22;6998;53.608;9.958;2022-10-16T03:06:57;12.60;99.90
13856;DHT22;6998;53.608;9.958;2022-10-16T03:09:25;12.50;99.90
13856;DHT22;6998;53.608;9.958;2022-10-16T03:11:52;12.50;99.90
13856;DHT22;6998;53.608;9.958;2022-10-16T03:14:18;12.60;99.90
13856;DHT22;6998;53.608;9.958;2022-10-16T03:16:45;12.50;99.90
13856;DHT22;6998;53.608;9.958;2022-10-16T03:19:12;12.50;99.90
13856;DHT22;6998;53.608;9.958;2022-10-16T03:21:38;12.60;99.90
13856;DHT22;6998;53.608;9.958;2022-10-16T03:24:05;12.50;99.90
13856;DHT22;6998;53.608;9.958;2022-10-16T03:26:33;12.60;99.90
13856;DHT22;6998;53.608;9.958;2022-10-16T03:29:00;12.50;99.90
13856;DHT22;6998;53.608;9.958;2022-10-16T03:31:28;12.50;99.90
13856;DHT22;6998;53.608;9.958;2022-10-16T03:33:54;12.40;99.90
13856;DHT22;6998;53.608;9.958;2022-10-16T03:36:21;12.40;99.90
13856;DHT22;6998;53.608;9.958;2022-10-16T03:38:48;12.50;99.90
13856;DHT22;6998;53.608;9.958;2022-10-16T03:41:15;12.40;99.90
13856;DHT22;6998;53.608;9.958;2022-10-16T03:43:43;12.40;99.90
13856;DHT22;6998;53.608;9.958;2022-10-16T03:46:10;12.40;99.90
13856;DHT22;6998;53.608;9.958;2022-10-16T03:48:37;12.40;99.90
13856;DHT22;6998;53.608;9.958;2022-10-16T03:51:05;12.40;99.90
13856;DHT22;6998;53.608;9.958;2022-10-16T03:53:32;12.50;99.90
13856;DHT22;6998;53.608;9.958;2022-10-16T03:55:59;12.50;99.90
13856;DHT22;6998;53.608;9.958;2022-10-16T03:58:25;12.50;99.90
13856;DHT22;6998;53.608;9.958;2022-10-16T04:00:54;12.50;99.90
13856;DHT22;6998;53.608;9.958;2022-10-16T04:03:21;12.50;99.90
13856;DHT22;6998;53.608;9.958;2022-10-16T04:05:48;12.50;99.90
13856;DHT22;6998;53.608;9.958;2022-10-16T04:08:15;12.60;99.90
13856;DHT22;6998;53.608;9.958;2022-10-16T04:10:42;12.60;99.90
13856;DHT22;6998;53.608;9.958;2022-10-16T04:13:09;12.60;99.90
13856;DHT22;6998;53.608;9.958;2022-10-16T04:15:36;12.60;99.90
13856;DHT22;6998;53.608;9.958;2022-10-16T04:18:04;12.60;99.90
13856;DHT22;6998;53.608;9.958;2022-10-16T04:20:31;12.50;99.90
13856;DHT22;6998;53.608;9.958;2022-10-16T04:22:57;12.50;99.90
13856;DHT22;6998;53.608;9.958;2022-10-16T04:25:24;12.50;99.90
13856;DHT22;6998;53.608;9.958;2022-10-16T04:27:52;12.50;99.90
13856;DHT22;6998;53.608;9.958;2022-10-16T04:30:19;12.50;99.90
13856;DHT22;6998;53.608;9.958;2022-10-16T04:32:47;12.50;99.90
13856;DHT22;6998;53.608;9.958;2022-10-16T04:35:16;12.50;99.90
13856;DHT22;6998;53.608;9.958;2022-10-16T04:37:43;12.50;99.90
13856;DHT22;6998;53.608;9.958;2022-10-16T04:40:10;12.50;99.90
13856;DHT22;6998;53.608;9.958;2022-10-16T04:42:37;12.50;99.90
13856;DHT22;6998;53.608;9.958;2022-10-16T04:45:05;12.50;99.90
13856;DHT22;6998;53.608;9.958;2022-10-16T04:47:32;12.50;99.90
13856;DHT22;6998;53.608;9.958;2022-10-16T04:49:58;12.50;99.90
13856;DHT22;6998;53.608;9.958;2022-10-16T04:52:29;12.50;99.90
13856;DHT22;6998;53.608;9.958;2022-10-16T04:54:57;12.40;99.90
13856;DHT22;6998;53.608;9.958;2022-10-16T04:57:26;12.50;99.90
13856;DHT22;6998;53.608;9.958;2022-10-16T04:59:53;12.50;99.90
13856;DHT22;6998;53.608;9.958;2022-10-16T05:02:20;12.40;99.90
13856;DHT22;6998;53.608;9.958;2022-10-16T05:04:47;12.40;99.90
13856;DHT22;6998;53.608;9.958;2022-10-16T05:07:13;12.40;99.90
13856;DHT22;6998;53.608;9.958;2022-10-16T05:09:41;12.30;99.90
13856;DHT22;6998;53.608;9.958;2022-10-16T05:12:08;12.40;99.90
13856;DHT22;6998;53.608;9.958;2022-10-16T05:14:35;12.30;99.90
13856;DHT22;6998;53.608;9.958;2022-10-16T05:17:01;12.30;99.90
13856;DHT22;6998;53.608;9.958;2022-10-16T05:19:28;12.30;99.90
13856;DHT22;6998;53.608;9.958;2022-10-16T05:21:55;12.40;99.90
13856;DHT22;6998;53.608;9.958;2022-10-16T05:24:21;12.40;99.90
13856;DHT22;6998;53.608;9.958;2022-10-16T05:26:50;12.40;99.90
13856;DHT22;6998;53.608;9.958;2022-10-16T05:29:16;12.40;99.90
13856;DHT22;6998;53.608;9.958;2022-10-16T05:31:43;12.30;99.90
13856;DHT22;6998;53.608;9.958;2022-10-16T05:34:10;12.30;99.90
13856;DHT22;6998;53.608;9.958;2022-10-16T05:36:37;12.30;99.90
13856;DHT22;6998;53.608;9.958;2022-10-16T05:39:06;12.30;99.90
13856;DHT22;6998;53.608;9.958;2022-10-16T05:41:33;12.40;99.90
13856;DHT22;6998;53.608;9.958;2022-10-16T05:44:04;12.40;99.90
13856;DHT22;6998;53.608;9.958;2022-10-16T05:46:30;12.40;99.90
13856;DHT22;6998;53.608;9.958;2022-10-16T05:48:57;12.50;99.90
13856;DHT22;6998;53.608;9.958;2022-10-16T05:51:24;12.60;99.90
13856;DHT22;6998;53.608;9.958;2022-10-16T05:53:52;12.60;99.90
13856;DHT22;6998;53.608;9.958;2022-10-16T05:56:18;12.50;99.90
13856;DHT22;6998;53.608;9.958;2022-10-16T05:58:45;12.60;99.90
13856;DHT22;6998;53.608;9.958;2022-10-16T06:01:15;12.60;99.90
13856;DHT22;6998;53.608;9.958;2022-10-16T06:03:42;12.60;99.90
13856;DHT22;6998;53.608;9.958;2022-10-16T06:06:09;12.60;99.90
13856;DHT22;6998;53.608;9.958;2022-10-16T06:08:36;12.70;99.90
13856;DHT22;6998;53.608;9.958;2022-10-16T06:11:04;12.80;99.90
13856;DHT22;6998;53.608;9.958;2022-10-16T06:13:31;12.80;99.90
13856;DHT22;6998;53.608;9.958;2022-10-16T06:15:59;12.90;99.90
13856;DHT22;6998;53.608;9.958;2022-10-16T06:18:28;12.90;99.90
13856;DHT22;6998;53.608;9.958;2022-10-16T06:20:56;12.90;99.90
13856;DHT22;6998;53.608;9.958;2022-10-16T06:23:23;12.90;99.90
13856;DHT22;6998;53.608;9.958;2022-10-16T06:25:50;12.90;99.90
13856;DHT22;6998;53.608;9.958;2022-10-16T06:28:16;13.00;99.90
13856;DHT22;6998;53.608;9.958;2022-10-16T06:30:43;13.00;99.90
13856;DHT22;6998;53.608;9.958;2022-10-16T06:33:11;13.00;99.90
13856;DHT22;6998;53.608;9.958;2022-10-16T06:35:39;13.00;99.90
13856;DHT22;6998;53.608;9.958;2022-10-16T06:38:05;13.00;99.90
13856;DHT22;6998;53.608;9.958;2022-10-16T06:40:32;13.10;99.90
13856;DHT22;6998;53.608;9.958;2022-10-16T06:42:59;13.10;99.90
13856;DHT22;6998;53.608;9.958;2022-10-16T06:45:25;13.10;99.90
13856;DHT22;6998;53.608;9.958;2022-10-16T06:47:52;13.20;99.90
13856;DHT22;6998;53.608;9.958;2022-10-16T06:50:19;13.20;99.90
13856;DHT22;6998;53.608;9.958;2022-10-16T06:52:47;13.30;99.90
13856;DHT22;6998;53.608;9.958;2022-10-16T06:55:14;13.30;99.90
13856;DHT22;6998;53.608;9.958;2022-10-16T06:57:42;13.40;99.90
13856;DHT22;6998;53.608;9.958;2022-10-16T07:00:09;13.50;99.90
13856;DHT22;6998;53.608;9.958;2022-10-16T07:02:36;13.60;99.90
13856;DHT22;6998;53.608;9.958;2022-10-16T07:05:03;13.70;99.90
13856;DHT22;6998;53.608;9.958;2022-10-16T07:07:30;13.80;99.90
13856;DHT22;6998;53.608;9.958;2022-10-16T07:09:58;13.80;99.90
13856;DHT22;6998;53.608;9.958;2022-10-16T07:12:25;13.90;99.90
13856;DHT22;6998;53.608;9.958;2022-10-16T07:14:51;14.00;99.90
13856;DHT22;6998;53.608;9.958;2022-10-16T07:17:20;14.10;99.90
13856;DHT22;6998;53.608;9.958;2022-10-16T07:19:46;14.10;99.90
13856;DHT22;6998;53.608;9.958;2022-10-16T07:22:13;14.20;99.90
13856;DHT22;6998;53.608;9.958;2022-10-16T07:24:40;14.30;99.90
13856;DHT22;6998;53.608;9.958;2022-10-16T07:27:08;14.20;99.90
13856;DHT22;6998;53.608;9.958;2022-10-16T07:29:35;14.20;99.90
13856;DHT22;6998;53.608;9.958;2022-10-16T07:32:02;14.20;99.90
13856;DHT22;6998;53.608;9.958;2022-10-16T07:34:29;14.20;99.90
13856;DHT22;6998;53.608;9.958;2022-10-16T07:36:55;14.20;99.90
13856;DHT22;6998;53.608;9.958;2022-10-16T07:39:22;14.30;99.90
13856;DHT22;6998;53.608;9.958;2022-10-16T07:41:49;14.30;99.90
13856;DHT22;6998;53.608;9.958;2022-10-16T07:44:17;14.40;99.90
13856;DHT22;6998;53.608;9.958;2022-10-16T07:46:44;14.40;99.90
13856;DHT22;6998;53.608;9.958;2022-10-16T07:49:10;14.40;99.90
13856;DHT22;6998;53.608;9.958;2022-10-16T07:51:37;14.60;99.90
13856;DHT22;6998;53.608;9.958;2022-10-16T07:54:04;14.60;99.90
13856;DHT22;6998;53.608;9.958;2022-10-16T07:56:31;14.60;99.90
13856;DHT22;6998;53.608;9.958;2022-10-16T07:58:58;14.60;99.90
13856;DHT22;6998;53.608;9.958;2022-10-16T08:01:28;14.60;99.90
13856;DHT22;6998;53.608;9.958;2022-10-16T08:03:55;14.60;99.90
13856;DHT22;6998;53.608;9.958;2022-10-16T08:06:22;14.60;99.90
13856;DHT22;6998;53.608;9.958;2022-10-16T08:08:48;14.50;99.90
13856;DHT22;6998;53.608;9.958;2022-10-16T08:11:16;14.40;99.90
13856;DHT22;6998;53.608;9.958;2022-10-16T08:13:43;14.40;99.90
13856;DHT22;6998;53.608;9.958;2022-10-16T08:16:09;14.40;99.90
13856;DHT22;6998;53.608;9.958;2022-10-16T08:18:38;14.40;99.90
13856;DHT22;6998;53.608;9.958;2022-10-16T08:21:06;14.50;99.90
13856;DHT22;6998;53.608;9.958;2022-10-16T08:23:34;14.50;99.90
13856;DHT22;6998;53.608;9.958;2022-10-16T08:26:05;14.50;99.90
13856;DHT22;6998;53.608;9.958;2022-10-16T08:28:32;14.60;99.90
13856;DHT22;6998;53.608;9.958;2022-10-16T08:31:10;14.60;99.90
13856;DHT22;6998;53.608;9.958;2022-10-16T08:33:40;14.70;99.90
13856;DHT22;6998;53.608;9.958;2022-10-16T08:36:07;14.70;99.90
13856;DHT22;6998;53.608;9.958;2022-10-16T08:38:34;14.80;99.90
13856;DHT22;6998;53.608;9.958;2022-10-16T08:41:18;14.80;99.90
13856;DHT22;6998;53.608;9.958;2022-10-16T08:44:13;14.80;99.90
13856;DHT22;6998;53.608;9.958;2022-10-16T08:46:52;14.80;99.90
13856;DHT22;6998;53.608;9.958;2022-10-16T08:49:24;14.80;99.90
13856;DHT22;6998;53.608;9.958;2022-10-16T08:51:51;14.90;99.90
13856;DHT22;6998;53.608;9.958;2022-10-16T08:54:28;14.90;99.90
13856;DHT22;6998;53.608;9.958;2022-10-16T08:56:56;14.90;99.90
13856;DHT22;6998;53.608;9.958;2022-10-16T08:59:22;15.00;99.90
13856;DHT22;6998;53.608;9.958;2022-10-16T09:01:50;15.10;99.90
13856;DHT22;6998;53.608;9.958;2022-10-16T09:04:44;15.10;99.90
13856;DHT22;6998;53.608;9.958;2022-10-16T09:07:15;15.20;99.90
13856;DHT22;6998;53.608;9.958;2022-10-16T09:10:05;15.30;99.90
13856;DHT22;6998;53.608;9.958;2022-10-16T09:12:36;15.40;99.90
13856;DHT22;6998;53.608;9.958;2022-10-16T09:15:14;15.40;99.90
13856;DHT22;6998;53.608;9.958;2022-10-16T09:17:49;15.50;99.90
13856;DHT22;6998;53.608;9.958;2022-10-16T09:20:28;15.60;99.90
13856;DHT22;6998;53.608;9.958;2022-10-16T09:23:12;15.70;99.90
13856;DHT22;6998;53.608;9.958;2022-10-16T09:25:42;15.70;99.90
13856;DHT22;6998;53.608;9.958;2022-10-16T09:28:09;15.80;99.90
13856;DHT22;6998;53.608;9.958;2022-10-16T09:30:37;15.80;99.90
13856;DHT22;6998;53.608;9.958;2022-10-16T09:33:05;15.90;99.90
13856;DHT22;6998;53.608;9.958;2022-10-16T09:35:37;15.90;99.90
13856;DHT22;6998;53.608;9.958;2022-10-16T09:38:06;16.00;99.90
13856;DHT22;6998;53.608;9.958;2022-10-16T09:40:34;16.00;99.90
13856;DHT22;6998;53.608;9.958;2022-10-16T09:43:12;16.00;99.90
13856;DHT22;6998;53.608;9.958;2022-10-16T09:45:40;16.10;99.90
13856;DHT22;6998;53.608;9.958;2022-10-16T09:48:11;16.20;99.90
13856;DHT22;6998;53.608;9.958;2022-10-16T09:50:40;16.20;99.90
13856;DHT22;6998;53.608;9.958;2022-10-16T09:53:11;16.30;99.90
13856;DHT22;6998;53.608;9.958;2022-10-16T09:55:48;16.40;99.90
13856;DHT22;6998;53.608;9.958;2022-10-16T09:58:15;16.50;99.90
13856;DHT22;6998;53.608;9.958;2022-10-16T10:00:49;16.50;99.90
13856;DHT22;6998;53.608;9.958;2022-10-16T10:03:36;16.60;99.90
13856;DHT22;6998;53.608;9.958;2022-10-16T10:06:16;16.50;99.90
13856;DHT22;6998;53.608;9.958;2022-10-16T10:08:58;16.60;99.90
13856;DHT22;6998;53.608;9.958;2022-10-16T10:11:50;16.50;99.90
13856;DHT22;6998;53.608;9.958;2022-10-16T10:14:20;16.50;99.90
13856;DHT22;6998;53.608;9.958;2022-10-16T10:16:48;16.60;99.90
13856;DHT22;6998;53.608;9.958;2022-10-16T10:19:17;16.60;99.90
13856;DHT22;6998;53.608;9.958;2022-10-16T10:21:46;16.60;99.90
13856;DHT22;6998;53.608;9.958;2022-10-16T10:24:14;16.70;99.90
13856;DHT22;6998;53.608;9.958;2022-10-16T10:26:48;16.70;99.90
13856;DHT22;6998;53.608;9.958;2022-10-16T10:29:25;16.70;99.90
13856;DHT22;6998;53.608;9.958;2022-10-16T10:31:58;16.90;99.90
13856;DHT22;6998;53.608;9.958;2022-10-16T10:34:43;17.00;99.90
13856;DHT22;6998;53.608;9.958;2022-10-16T10:37:25;16.90;99.90
13856;DHT22;6998;53.608;9.958;2022-10-16T10:40:02;16.90;99.90
13856;DHT22;6998;53.608;9.958;2022-10-16T10:42:35;17.00;99.90
13856;DHT22;6998;53.608;9.958;2022-10-16T10:45:16;17.10;99.90
13856;DHT22;6998;53.608;9.958;2022-10-16T10:47:52;17.20;99.90
13856;DHT22;6998;53.608;9.958;2022-10-16T10:50:24;17.30;99.90
13856;DHT22;6998;53.608;9.958;2022-10-16T10:52:59;17.40;99.90
13856;DHT22;6998;53.608;9.958;2022-10-16T10:55:37;17.50;99.90
13856;DHT22;6998;53.608;9.958;2022-10-16T10:58:26;17.50;99.90
13856;DHT22;6998;53.608;9.958;2022-10-16T11:01:01;17.40;99.90
13856;DHT22;6998;53.608;9.958;2022-10-16T11:04:05;17.40;99.90
13856;DHT22;6998;53.608;9.958;2022-10-16T11:06:37;17.40;99.90
13856;DHT22;6998;53.608;9.958;2022-10-16T11:09:11;17.50;99.90
13856;DHT22;6998;53.608;9.958;2022-10-16T11:11:42;17.60;99.90
13856;DHT22;6998;53.608;9.958;2022-10-16T11:14:15;17.60;99.90
13856;DHT22;6998;53.608;9.958;2022-10-16T11:16:49;17.70;99.90
13856;DHT22;6998;53.608;9.958;2022-10-16T11:19:24;17.60;99.90
13856;DHT22;6998;53.608;9.958;2022-10-16T11:21:55;17.60;99.90
13856;DHT22;6998;53.608;9.958;2022-10-16T11:24:35;17.70;99.90
13856;DHT22;6998;53.608;9.958;2022-10-16T11:27:07;17.70;99.90
13856;DHT22;6998;53.608;9.958;2022-10-16T11:29:35;17.80;99.90
13856;DHT22;6998;53.608;9.958;2022-10-16T11:32:15;18.00;99.90
13856;DHT22;6998;53.608;9.958;2022-10-16T11:34:49;18.10;99.90
13856;DHT22;6998;53.608;9.958;2022-10-16T11:37:19;18.10;99.90
13856;DHT22;6998;53.608;9.958;2022-10-16T11:39:48;18.20;99.90
13856;DHT22;6998;53.608;9.958;2022-10-16T11:42:19;18.20;99.90
13856;DHT22;6998;53.608;9.958;2022-10-16T11:44:53;18.30;99.90
13856;DHT22;6998;53.608;9.958;2022-10-16T11:47:30;18.30;99.90
13856;DHT22;6998;53.608;9.958;2022-10-16T11:50:02;18.30;99.90
13856;DHT22;6998;53.608;9.958;2022-10-16T11:52:35;18.20;99.90
13856;DHT22;6998;53.608;9.958;2022-10-16T11:55:08;18.00;99.90
13856;DHT22;6998;53.608;9.958;2022-10-16T11:57:44;17.90;99.90
13856;DHT22;6998;53.608;9.958;2022-10-16T12:00:20;17.80;99.90
13856;DHT22;6998;53.608;9.958;2022-10-16T12:02:58;17.80;99.90
13856;DHT22;6998;53.608;9.958;2022-10-16T12:05:34;17.80;99.90
13856;DHT22;6998;53.608;9.958;2022-10-16T12:08:07;17.80;99.90
13856;DHT22;6998;53.608;9.958;2022-10-16T12:10:39;18.00;99.90
13856;DHT22;6998;53.608;9.958;2022-10-16T12:13:29;18.10;99.90
13856;DHT22;6998;53.608;9.958;2022-10-16T12:16:05;18.10;99.90
13856;DHT22;6998;53.608;9.958;2022-10-16T12:18:31;18.10;99.90
13856;DHT22;6998;53.608;9.958;2022-10-16T12:20:59;18.00;99.90
13856;DHT22;6998;53.608;9.958;2022-10-16T12:23:31;18.10;99.90
13856;DHT22;6998;53.608;9.958;2022-10-16T12:26:00;18.10;99.90
13856;DHT22;6998;53.608;9.958;2022-10-16T12:28:28;18.10;99.90
13856;DHT22;6998;53.608;9.958;2022-10-16T12:30:58;18.10;99.90
13856;DHT22;6998;53.608;9.958;2022-10-16T12:33:27;18.20;99.90
13856;DHT22;6998;53.608;9.958;2022-10-16T12:35:55;18.20;99.90
13856;DHT22;6998;53.608;9.958;2022-10-16T12:38:25;18.20;99.90
13856;DHT22;6998;53.608;9.958;2022-10-16T12:40:59;18.30;99.90
13856;DHT22;6998;53.608;9.958;2022-10-16T12:43:35;18.30;99.90
13856;DHT22;6998;53.608;9.958;2022-10-16T12:46:05;18.40;99.90
13856;DHT22;6998;53.608;9.958;2022-10-16T12:48:45;18.50;99.90
13856;DHT22;6998;53.608;9.958;2022-10-16T12:51:23;18.70;99.90
13856;DHT22;6998;53.608;9.958;2022-10-16T12:53:58;18.70;99.90
13856;DHT22;6998;53.608;9.958;2022-10-16T12:56:32;18.40;99.90
13856;DHT22;6998;53.608;9.958;2022-10-16T12:59:11;18.20;99.90
13856;DHT22;6998;53.608;9.958;2022-10-16T13:01:55;18.00;99.90
13856;DHT22;6998;53.608;9.958;2022-10-16T13:04:34;17.90;99.90
13856;DHT22;6998;53.608;9.958;2022-10-16T13:07:20;18.20;99.90
13856;DHT22;6998;53.608;9.958;2022-10-16T13:09:58;18.40;99.90
13856;DHT22;6998;53.608;9.958;2022-10-16T13:12:42;18.50;99.90
13856;DHT22;6998;53.608;9.958;2022-10-16T13:15:47;18.50;99.90
13856;DHT22;6998;53.608;9.958;2022-10-16T13:18:23;18.40;99.90
13856;DHT22;6998;53.608;9.958;2022-10-16T13:21:02;18.40;99.90
13856;DHT22;6998;53.608;9.958;2022-10-16T13:23:38;18.50;99.90
13856;DHT22;6998;53.608;9.958;2022-10-16T13:26:15;18.60;99.90
13856;DHT22;6998;53.608;9.958;2022-10-16T13:28:45;18.60;99.90
13856;DHT22;6998;53.608;9.958;2022-10-16T13:31:15;18.60;99.90
13856;DHT22;6998;53.608;9.958;2022-10-16T13:33:46;18.60;99.90
13856;DHT22;6998;53.608;9.958;2022-10-16T13:36:22;18.60;99.90
13856;DHT22;6998;53.608;9.958;2022-10-16T13:39:00;18.60;99.90
13856;DHT22;6998;53.608;9.958;2022-10-16T13:41:27;18.70;99.90
13856;DHT22;6998;53.608;9.958;2022-10-16T13:43:56;18.70;99.90
13856;DHT22;6998;53.608;9.958;2022-10-16T13:46:24;18.70;99.90
13856;DHT22;6998;53.608;9.958;2022-10-16T13:48:58;18.70;99.90
13856;DHT22;6998;53.608;9.958;2022-10-16T13:51:26;18.80;99.90
13856;DHT22;6998;53.608;9.958;2022-10-16T13:53:55;18.80;99.90
13856;DHT22;6998;53.608;9.958;2022-10-16T13:56:24;18.70;99.90
13856;DHT22;6998;53.608;9.958;2022-10-16T13:59:01;18.70;99.90
13856;DHT22;6998;53.608;9.958;2022-10-16T14:01:29;18.60;99.90
13856;DHT22;6998;53.608;9.958;2022-10-16T14:04:02;18.60;99.90
13856;DHT22;6998;53.608;9.958;2022-10-16T14:06:31;18.70;99.90
13856;DHT22;6998;53.608;9.958;2022-10-16T14:09:00;18.60;99.90
13856;DHT22;6998;53.608;9.958;2022-10-16T14:11:28;18.50;99.90
13856;DHT22;6998;53.608;9.958;2022-10-16T14:13:55;18.40;99.90
13856;DHT22;6998;53.608;9.958;2022-10-16T14:16:26;18.30;99.90
13856;DHT22;6998;53.608;9.958;2022-10-16T14:18:59;18.30;99.90
13856;DHT22;6998;53.608;9.958;2022-10-16T14:21:26;18.30;99.90
13856;DHT22;6998;53.608;9.958;2022-10-16T14:23:54;18.20;99.90
13856;DHT22;6998;53.608;9.958;2022-10-16T14:26:23;18.10;99.90
13856;DHT22;6998;53.608;9.958;2022-10-16T14:29:03;18.10;99.90
13856;DHT22;6998;53.608;9.958;2022-10-16T14:31:33;18.20;99.90
13856;DHT22;6998;53.608;9.958;2022-10-16T14:34:01;18.30;99.90
13856;DHT22;6998;53.608;9.958;2022-10-16T14:36:30;18.40;99.90
13856;DHT22;6998;53.608;9.958;2022-10-16T14:39:04;18.40;99.90
13856;DHT22;6998;53.608;9.958;2022-10-16T14:41:41;18.30;99.90
13856;DHT22;6998;53.608;9.958;2022-10-16T14:44:11;18.20;99.90
13856;DHT22;6998;53.608;9.958;2022-10-16T14:46:41;18.10;99.90
13856;DHT22;6998;53.608;9.958;2022-10-16T14:49:16;18.00;99.90
13856;DHT22;6998;53.608;9.958;2022-10-16T14:51:43;17.80;99.90
13856;DHT22;6998;53.608;9.958;2022-10-16T14:54:12;17.80;99.90
13856;DHT22;6998;53.608;9.958;2022-10-16T14:56:45;17.70;99.90
13856;DHT22;6998;53.608;9.958;2022-10-16T14:59:15;17.70;99.90
13856;DHT22;6998;53.608;9.958;2022-10-16T15:01:44;17.70;99.90
13856;DHT22;6998;53.608;9.958;2022-10-16T15:04:12;17.60;99.90
13856;DHT22;6998;53.608;9.958;2022-10-16T15:06:39;17.70;99.90
13856;DHT22;6998;53.608;9.958;2022-10-16T15:09:06;17.50;99.90
13856;DHT22;6998;53.608;9.958;2022-10-16T15:11:33;17.40;99.90
13856;DHT22;6998;53.608;9.958;2022-10-16T15:14:00;17.30;99.90
13856;DHT22;6998;53.608;9.958;2022-10-16T15:16:27;17.20;99.90
13856;DHT22;6998;53.608;9.958;2022-10-16T15:18:55;17.10;99.90
13856;DHT22;6998;53.608;9.958;2022-10-16T15:21:25;17.00;99.90
13856;DHT22;6998;53.608;9.958;2022-10-16T15:23:52;16.80;99.90
13856;DHT22;6998;53.608;9.958;2022-10-16T15:26:19;16.80;99.90
13856;DHT22;6998;53.608;9.958;2022-10-16T15:28:46;16.80;99.90
13856;DHT22;6998;53.608;9.958;2022-10-16T15:31:12;16.80;99.90
13856;DHT22;6998;53.608;9.958;2022-10-16T15:33:39;16.70;99.90
13856;DHT22;6998;53.608;9.958;2022-10-16T15:36:07;16.70;99.90
13856;DHT22;6998;53.608;9.958;2022-10-16T15:38:34;16.60;99.90
13856;DHT22;6998;53.608;9.958;2022-10-16T15:41:02;16.50;99.90
13856;DHT22;6998;53.608;9.958;2022-10-16T15:43:29;16.40;99.90
13856;DHT22;6998;53.608;9.958;2022-10-16T15:46:00;16.30;99.90
13856;DHT22;6998;53.608;9.958;2022-10-16T15:48:28;16.20;99.90
13856;DHT22;6998;53.608;9.958;2022-10-16T15:50:55;16.10;99.90
13856;DHT22;6998;53.608;9.958;2022-10-16T15:53:23;16.00;99.90
13856;DHT22;6998;53.608;9.958;2022-10-16T15:55:50;15.90;99.90
13856;DHT22;6998;53.608;9.958;2022-10-16T15:58:17;15.90;99.90
13856;DHT22;6998;53.608;9.958;2022-10-16T16:00:44;15.70;99.90
13856;DHT22;6998;53.608;9.958;2022-10-16T16:03:10;15.70;99.90
13856;DHT22;6998;53.608;9.958;2022-10-16T16:05:38;15.50;99.90